createdAt,value
2019-05-18T00:02:10.109Z,19.88
2019-05-18T00:04:39.373Z,19.86
2019-05-18T00:07:08.659Z,19.88
2019-05-18T00:09:37.912Z,19.87
2019-05-18T00:12:07.177Z,19.85
2019-05-18T00:14:36.455Z,19.87
2019-05-18T00:17:08.020Z,19.84
2019-05-18T00:19:36.704Z,19.85
2019-05-18T00:22:05.982Z,19.84
2019-05-18T00:24:35.251Z,19.82
2019-05-18T00:27:04.575Z,19.83
2019-05-18T00:29:35.458Z,19.80
2019-05-18T00:32:04.785Z,19.81
2019-05-18T00:34:34.095Z,19.79
2019-05-18T00:37:03.442Z,19.77
2019-05-18T00:39:32.730Z,19.78
2019-05-18T00:42:02.161Z,19.77
2019-05-18T00:44:31.438Z,19.75
2019-05-18T00:47:00.700Z,19.78
2019-05-18T00:49:29.973Z,19.78
2019-05-18T00:51:59.228Z,19.75
2019-05-18T00:54:28.495Z,19.75
2019-05-18T00:56:57.753Z,19.74
2019-05-18T00:59:27.025Z,19.74
2019-05-18T01:01:56.312Z,19.73
2019-05-18T01:04:25.594Z,19.71
2019-05-18T01:06:54.856Z,19.70
2019-05-18T01:09:24.148Z,19.70
2019-05-18T01:11:53.400Z,19.68
2019-05-18T01:14:22.661Z,19.68
2019-05-18T01:16:51.904Z,19.65
2019-05-18T01:19:21.170Z,19.69
2019-05-18T01:21:50.461Z,19.65
2019-05-18T01:24:19.897Z,19.66
2019-05-18T01:26:49.161Z,19.64
2019-05-18T01:29:18.422Z,19.65
2019-05-18T01:31:47.683Z,19.64
2019-05-18T01:34:16.954Z,19.65
2019-05-18T01:36:46.221Z,19.63
2019-05-18T01:39:15.471Z,19.60
2019-05-18T01:41:44.743Z,19.59
2019-05-18T01:44:14.002Z,19.60
2019-05-18T01:46:43.276Z,19.63
2019-05-18T01:49:12.513Z,19.63
2019-05-18T01:51:41.790Z,19.60
2019-05-18T01:54:11.058Z,19.59
2019-05-18T01:56:40.316Z,19.57
2019-05-18T01:59:09.584Z,19.57
2019-05-18T02:01:38.865Z,19.56
2019-05-18T02:04:08.120Z,19.56
2019-05-18T02:06:37.403Z,19.55
2019-05-18T02:09:08.373Z,19.53
2019-05-18T02:11:37.655Z,19.52
2019-05-18T02:14:06.908Z,19.52
2019-05-18T02:16:36.191Z,19.52
2019-05-18T02:19:05.446Z,19.47
2019-05-18T02:21:34.734Z,19.47
2019-05-18T02:24:05.082Z,19.48
2019-05-18T02:26:34.320Z,19.46
2019-05-18T02:29:03.591Z,19.45
2019-05-18T02:31:32.856Z,19.43
2019-05-18T02:34:02.147Z,19.40
2019-05-18T02:36:31.400Z,19.41
2019-05-18T02:39:00.657Z,19.38
2019-05-18T02:41:30.200Z,19.41
2019-05-18T02:43:59.478Z,19.38
2019-05-18T02:46:28.743Z,19.35
2019-05-18T02:48:58.030Z,19.35
2019-05-18T02:51:27.294Z,19.35
2019-05-18T02:53:56.646Z,19.35
2019-05-18T02:56:25.908Z,19.33
2019-05-18T02:58:55.185Z,19.32
2019-05-18T03:01:24.454Z,19.32
2019-05-18T03:03:53.727Z,19.34
2019-05-18T03:06:23.002Z,19.30
2019-05-18T03:08:52.267Z,19.30
2019-05-18T03:11:21.530Z,19.26
2019-05-18T03:13:50.805Z,19.28
2019-05-18T03:16:20.057Z,19.28
2019-05-18T03:19:06.695Z,19.26
2019-05-18T03:21:20.293Z,19.26
2019-05-18T03:23:49.560Z,19.25
2019-05-18T03:26:18.835Z,19.25
2019-05-18T03:28:48.094Z,19.20
2019-05-18T03:31:17.388Z,19.20
2019-05-18T03:33:46.615Z,19.21
2019-05-18T03:36:15.882Z,19.22
2019-05-18T03:38:45.158Z,19.20
2019-05-18T03:41:14.476Z,19.19
2019-05-18T03:43:43.748Z,19.21
2019-05-18T03:46:12.998Z,19.19
2019-05-18T03:48:42.275Z,19.19
2019-05-18T03:51:11.547Z,19.20
2019-05-18T03:53:40.845Z,19.20
2019-05-18T03:56:11.173Z,19.16
2019-05-18T03:58:40.441Z,19.16
2019-05-18T04:01:09.715Z,19.16
2019-05-18T04:03:39.152Z,19.15
2019-05-18T04:06:08.429Z,19.17
2019-05-18T04:08:37.691Z,19.19
2019-05-18T04:11:06.961Z,19.15
2019-05-18T04:13:36.213Z,19.17
2019-05-18T04:16:05.469Z,19.18
2019-05-18T04:18:34.755Z,19.19
2019-05-18T04:21:06.863Z,19.12
2019-05-18T04:23:37.287Z,19.15
2019-05-18T04:26:06.572Z,19.14
2019-05-18T04:28:35.837Z,19.14
2019-05-18T04:31:05.088Z,19.15
2019-05-18T04:33:34.357Z,19.14
2019-05-18T04:36:03.631Z,19.12
2019-05-18T04:38:32.888Z,19.12
2019-05-18T04:41:02.154Z,19.14
2019-05-18T04:43:31.434Z,19.16
2019-05-18T04:46:00.682Z,19.14
2019-05-18T04:48:29.978Z,19.12
2019-05-18T04:51:00.216Z,19.11
2019-05-18T04:53:29.480Z,19.12
2019-05-18T04:55:59.145Z,19.13
2019-05-18T04:58:28.411Z,19.13
2019-05-18T05:00:57.674Z,19.12
2019-05-18T05:03:26.965Z,19.11
2019-05-18T05:05:56.241Z,19.12
2019-05-18T05:08:25.497Z,19.11
2019-05-18T05:10:54.767Z,19.10
2019-05-18T05:13:25.651Z,19.11
2019-05-18T05:15:54.920Z,19.10
2019-05-18T05:18:24.181Z,19.12
2019-05-18T05:20:53.443Z,19.10
2019-05-18T05:23:22.704Z,19.12
2019-05-18T05:25:51.971Z,19.11
2019-05-18T05:28:21.274Z,19.10
2019-05-18T05:30:50.530Z,19.11
2019-05-18T05:33:19.802Z,19.15
2019-05-18T05:35:49.145Z,19.26
2019-05-18T05:38:18.404Z,19.35
2019-05-18T05:40:47.675Z,19.48
2019-05-18T05:43:16.956Z,19.54
2019-05-18T05:45:46.212Z,19.64
2019-05-18T05:48:15.489Z,19.69
2019-05-18T05:50:44.807Z,19.75
2019-05-18T05:53:14.071Z,19.78
2019-05-18T05:55:43.330Z,19.79
2019-05-18T05:58:12.602Z,19.82
2019-05-18T06:00:41.867Z,19.87
2019-05-18T06:03:11.131Z,19.92
2019-05-18T06:05:40.403Z,19.95
2019-05-18T06:08:09.750Z,20.02
2019-05-18T06:10:39.004Z,20.06
2019-05-18T06:13:08.300Z,20.10
2019-05-18T06:15:37.573Z,20.15
2019-05-18T06:18:06.838Z,20.15
2019-05-18T06:20:50.329Z,20.16
2019-05-18T06:23:07.094Z,20.19
2019-05-18T06:25:37.418Z,20.21
2019-05-18T06:28:06.683Z,20.25
2019-05-18T06:30:35.968Z,20.28
2019-05-18T06:33:06.322Z,20.33
2019-05-18T06:35:35.591Z,20.37
2019-05-18T06:38:05.134Z,20.40
2019-05-18T06:40:34.472Z,20.41
2019-05-18T06:43:03.736Z,20.43
2019-05-18T06:45:32.996Z,20.43
2019-05-18T06:48:02.300Z,20.48
2019-05-18T06:50:32.217Z,20.47
2019-05-18T06:53:01.613Z,20.55
2019-05-18T06:55:30.859Z,20.61
2019-05-18T06:58:00.119Z,20.68
2019-05-18T07:00:29.382Z,20.76
2019-05-18T07:02:58.641Z,20.77
2019-05-18T07:05:27.915Z,20.78
2019-05-18T07:07:57.219Z,20.81
2019-05-18T07:10:26.500Z,20.84
2019-05-18T07:12:55.768Z,20.87
2019-05-18T07:15:25.033Z,20.87
2019-05-18T07:17:54.382Z,20.89
2019-05-18T07:20:23.642Z,20.87
2019-05-18T07:22:52.964Z,20.89
2019-05-18T07:25:22.184Z,20.91
2019-05-18T07:27:51.802Z,20.86
2019-05-18T07:30:21.088Z,20.85
2019-05-18T07:32:50.348Z,20.88
2019-05-18T07:35:19.623Z,20.92
2019-05-18T07:37:48.880Z,20.90
2019-05-18T07:40:19.326Z,20.92
2019-05-18T07:42:48.577Z,20.90
2019-05-18T07:45:17.833Z,20.90
2019-05-18T07:47:47.109Z,20.92
2019-05-18T07:50:16.379Z,20.91
2019-05-18T07:52:45.655Z,20.92
2019-05-18T07:55:14.921Z,20.92
2019-05-18T07:57:44.184Z,20.93
2019-05-18T08:00:13.449Z,20.93
2019-05-18T08:02:42.779Z,20.98
2019-05-18T08:05:12.089Z,20.99
2019-05-18T08:07:41.368Z,20.99
2019-05-18T08:10:10.693Z,21.01
2019-05-18T08:12:39.984Z,21.02
2019-05-18T08:15:09.589Z,21.00
2019-05-18T08:17:38.836Z,21.03
2019-05-18T08:20:08.102Z,21.06
2019-05-18T08:22:37.373Z,21.03
2019-05-18T08:25:07.312Z,21.04
2019-05-18T08:27:36.588Z,21.08
2019-05-18T08:30:06.491Z,21.09
2019-05-18T08:32:35.694Z,21.08
2019-05-18T08:35:06.335Z,21.08
2019-05-18T08:37:35.681Z,21.40
2019-05-18T08:40:08.241Z,18.70
2019-05-18T08:42:38.157Z,18.34
2019-05-18T08:45:08.787Z,17.62
2019-05-18T08:47:38.087Z,17.47
2019-05-18T08:50:07.870Z,17.34
2019-05-18T08:52:37.159Z,17.10
2019-05-18T08:55:06.510Z,16.58
2019-05-18T08:57:35.782Z,16.32
2019-05-18T09:00:05.789Z,16.70
2019-05-18T09:02:35.085Z,17.05
2019-05-18T09:05:05.360Z,17.32
2019-05-18T09:07:34.569Z,17.28
2019-05-18T09:10:05.790Z,16.89
2019-05-18T09:12:35.059Z,16.72
2019-05-18T09:15:07.041Z,16.78
2019-05-18T09:17:36.319Z,16.52
2019-05-18T12:28:53.575Z,24.57
2019-05-18T12:33:07.214Z,24.81
2019-05-18T12:35:36.485Z,24.63
2019-05-18T12:38:05.747Z,24.75
2019-05-18T12:40:35.038Z,24.73
2019-05-18T12:43:04.306Z,24.82
2019-05-18T12:45:33.585Z,24.82
2019-05-18T12:48:02.847Z,24.82
2019-05-18T12:50:32.104Z,24.87
2019-05-18T12:53:01.386Z,24.91
2019-05-18T12:55:30.634Z,24.90
2019-05-18T12:57:59.905Z,24.82
2019-05-18T13:02:03.036Z,25.15
2019-05-18T13:04:57.220Z,25.20
2019-05-18T13:07:26.382Z,25.26
2019-05-18T13:09:55.551Z,25.44
2019-05-18T13:12:24.706Z,25.46
2019-05-18T13:14:53.874Z,25.55
2019-05-18T13:17:23.017Z,25.58
2019-05-18T13:19:52.170Z,25.54
2019-05-18T13:22:21.314Z,25.60
2019-05-18T13:24:52.227Z,25.56
2019-05-18T13:27:21.726Z,25.62
2019-05-18T13:29:51.956Z,25.66
2019-05-18T13:32:22.198Z,25.70
2019-05-18T13:34:51.362Z,25.79
2019-05-18T13:37:20.535Z,25.84
2019-05-18T13:39:49.689Z,25.79
2019-05-18T13:42:18.842Z,25.91
2019-05-18T13:44:47.998Z,25.97
2019-05-18T13:47:17.143Z,26.04
2019-05-18T13:49:46.311Z,26.05
2019-05-18T13:52:15.480Z,26.12
2019-05-18T13:55:01.181Z,26.15
2019-05-18T13:57:15.491Z,26.11
2019-05-18T13:59:44.651Z,26.08
2019-05-18T14:02:13.791Z,26.07
2019-05-18T14:04:42.971Z,26.13
2019-05-18T14:07:12.119Z,26.21
2019-05-18T14:09:41.274Z,26.40
2019-05-18T14:12:10.497Z,26.35
2019-05-18T14:14:39.682Z,26.30
2019-05-18T14:17:08.816Z,26.28
2019-05-18T14:19:38.003Z,26.32
2019-05-18T14:22:07.135Z,26.26
2019-05-18T14:24:36.313Z,26.30
2019-05-18T14:27:05.479Z,26.32
2019-05-18T14:29:34.642Z,26.28
2019-05-18T14:32:03.814Z,26.27
2019-05-18T14:34:32.977Z,26.30
2019-05-18T14:37:03.114Z,26.33
2019-05-18T14:39:32.277Z,26.36
2019-05-18T14:42:01.534Z,26.30
2019-05-18T14:44:30.761Z,26.24
2019-05-18T14:47:00.046Z,26.24
2019-05-18T14:49:29.199Z,26.19
2019-05-18T14:51:58.375Z,26.15
2019-05-18T14:54:27.503Z,26.09
2019-05-18T14:56:56.654Z,26.08
2019-05-18T14:59:25.812Z,26.06
2019-05-18T15:04:04.374Z,26.02
2019-05-18T15:08:43.523Z,24.64
2019-05-18T15:11:12.704Z,24.64
2019-05-18T15:13:41.867Z,24.74
2019-05-18T15:16:11.038Z,24.66
2019-05-18T15:18:40.458Z,24.57
2019-05-18T15:21:09.710Z,24.94
2019-05-18T15:23:38.877Z,25.36
2019-05-18T15:26:08.049Z,25.60
2019-05-18T15:28:37.230Z,25.77
2019-05-18T15:31:06.393Z,26.06
2019-05-18T15:33:35.585Z,26.35
2019-05-18T15:36:04.775Z,25.59
2019-05-18T15:38:33.947Z,25.55
2019-05-18T15:41:03.101Z,26.04
2019-05-18T15:43:32.271Z,25.71
2019-05-18T15:46:01.442Z,26.10
2019-05-18T15:48:30.696Z,26.27
2019-05-18T15:50:59.880Z,26.10
2019-05-18T15:53:29.023Z,26.25
2019-05-18T15:56:05.851Z,26.13
2019-05-18T15:58:29.072Z,25.65
2019-05-18T16:00:58.310Z,25.85
2019-05-18T16:03:28.873Z,26.29
2019-05-18T16:05:58.975Z,26.43
2019-05-18T16:08:30.040Z,26.79
2019-05-18T16:10:59.196Z,26.79
2019-05-18T16:13:28.357Z,27.33
2019-05-18T16:16:00.606Z,27.41
2019-05-18T16:18:29.764Z,27.60
2019-05-18T16:21:00.621Z,27.47
2019-05-18T16:23:29.782Z,27.14
2019-05-18T16:25:58.956Z,26.82
2019-05-18T16:28:28.110Z,26.62
2019-05-18T16:30:57.375Z,25.95
2019-05-18T16:33:26.555Z,25.54
2019-05-18T16:35:55.717Z,25.31
2019-05-18T18:54:19.641Z,24.29
2019-05-18T18:56:48.794Z,24.41
2019-05-18T18:59:17.956Z,24.80
2019-05-18T19:01:48.079Z,25.03
2019-05-18T19:04:17.253Z,25.17
2019-05-18T19:06:46.419Z,25.27
2019-05-18T19:09:15.601Z,25.38
2019-05-18T19:11:44.756Z,25.40
2019-05-18T19:14:13.920Z,25.51
2019-05-18T19:16:43.085Z,25.56
2019-05-18T19:19:12.266Z,25.61
2019-05-18T19:21:41.414Z,25.78
2019-05-18T19:24:10.569Z,25.87
2019-05-18T19:26:39.737Z,25.87
2019-05-18T19:29:09.027Z,25.93
2019-05-18T19:31:38.179Z,25.90
2019-05-18T19:34:06.700Z,25.96
2019-05-18T19:36:35.723Z,25.81
2019-05-18T19:39:06.164Z,25.70
2019-05-18T19:41:35.419Z,25.73
2019-05-18T19:44:04.573Z,25.76
2019-05-18T19:46:34.375Z,25.81
2019-05-18T19:49:03.536Z,25.76
2019-05-18T19:51:32.723Z,25.78
2019-05-18T19:54:01.862Z,25.78
2019-05-18T19:56:38.216Z,25.75
2019-05-18T19:59:01.879Z,25.82
2019-05-18T20:01:31.105Z,25.84
2019-05-18T20:04:00.258Z,25.90
2019-05-18T20:06:29.425Z,25.84
2019-05-18T20:08:58.587Z,25.87
2019-05-18T20:11:27.732Z,25.87
2019-05-18T20:13:56.892Z,25.88
2019-05-18T20:16:26.054Z,25.88
2019-05-18T20:18:55.209Z,25.90
2019-05-18T20:21:24.381Z,25.90
2019-05-18T20:23:53.538Z,25.87
2019-05-18T20:26:22.703Z,25.90
2019-05-18T20:28:51.849Z,25.93
2019-05-18T20:31:21.137Z,25.93
2019-05-18T20:33:50.262Z,25.91
2019-05-18T20:36:19.410Z,25.94
2019-05-18T20:38:48.571Z,25.92
2019-05-18T20:41:17.718Z,25.94
2019-05-18T20:43:46.885Z,25.97
2019-05-18T20:46:16.047Z,25.93
2019-05-18T20:48:45.207Z,25.89
2019-05-18T20:51:14.364Z,25.89
2019-05-18T20:53:44.590Z,25.84
2019-05-18T20:56:13.736Z,25.92
2019-05-18T20:58:42.912Z,25.94
2019-05-18T21:01:12.067Z,25.91
2019-05-18T21:03:42.302Z,25.93
2019-05-18T21:06:11.469Z,25.93
2019-05-18T21:08:40.624Z,25.91
2019-05-18T21:11:09.775Z,25.92
2019-05-18T21:13:38.985Z,25.82
2019-05-18T21:16:08.128Z,25.77
2019-05-18T21:18:37.295Z,25.86
2019-05-18T21:21:06.466Z,25.91
2019-05-18T21:23:35.622Z,25.84
2019-05-18T21:26:04.781Z,25.88
2019-05-18T21:28:33.928Z,25.87
2019-05-18T21:31:03.081Z,25.84
2019-05-18T21:33:32.238Z,25.84
2019-05-18T21:36:01.399Z,25.84
2019-05-18T21:38:31.731Z,25.82
2019-05-18T21:41:00.891Z,25.79
2019-05-18T21:43:30.049Z,25.80
2019-05-18T21:45:59.213Z,25.78
2019-05-18T21:48:28.358Z,25.78
2019-05-18T21:50:57.529Z,25.77
2019-05-18T21:53:26.684Z,25.75
2019-05-18T21:55:55.844Z,25.73
2019-05-18T21:58:25.016Z,25.78
2019-05-18T22:00:54.242Z,25.75
2019-05-18T22:03:23.442Z,25.73
2019-05-18T22:05:52.591Z,25.73
2019-05-18T22:08:21.768Z,25.66
2019-05-18T22:10:51.034Z,25.61
2019-05-18T22:13:20.194Z,25.66
2019-05-18T22:15:49.357Z,25.61
2019-05-18T22:18:24.463Z,25.66
2019-05-18T22:20:49.392Z,25.62
2019-05-18T22:23:18.535Z,25.66
2019-05-18T22:25:47.720Z,25.63
2019-05-18T22:28:16.864Z,25.62
2019-05-18T22:30:46.023Z,25.60
2019-05-18T22:33:15.183Z,25.60
2019-05-18T22:35:44.339Z,25.50
2019-05-18T22:38:13.504Z,25.58
2019-05-18T22:40:42.648Z,25.66
2019-05-18T22:43:11.806Z,25.57
2019-05-18T22:45:40.971Z,25.55
2019-05-18T22:48:10.185Z,25.57
2019-05-18T22:50:39.357Z,25.51
2019-05-18T22:53:08.520Z,25.53
2019-05-18T22:55:37.690Z,25.56
2019-05-18T22:58:06.852Z,25.56
2019-05-18T23:00:36.369Z,25.52
2019-05-18T23:03:05.598Z,25.52
2019-05-18T23:05:34.812Z,25.51
2019-05-18T23:08:04.000Z,25.45
2019-05-18T23:10:33.159Z,25.49
2019-05-18T23:13:02.316Z,25.47
2019-05-18T23:15:31.479Z,25.48
2019-05-18T23:18:00.631Z,25.43
2019-05-18T23:20:30.875Z,25.45
2019-05-18T23:23:00.052Z,25.39
2019-05-18T23:25:29.191Z,25.40
2019-05-18T23:27:58.349Z,25.34
2019-05-18T23:30:27.492Z,25.37
2019-05-18T23:32:56.650Z,25.41
2019-05-18T23:35:25.811Z,25.42
2019-05-18T23:37:54.988Z,25.33
2019-05-18T23:40:24.137Z,25.39
2019-05-18T23:42:53.298Z,25.36
2019-05-18T23:45:22.451Z,25.34
2019-05-18T23:47:51.793Z,25.33
2019-05-18T23:50:20.955Z,25.39
2019-05-18T23:52:50.105Z,25.35
2019-05-18T23:55:19.252Z,25.37
2019-05-18T23:57:48.421Z,25.35
